sensor_id;sensor_type;location;lat;lon;timestamp;pressure;altitude;pressure_sealevel;temperature;humidity
28027;BME280;15344;52.342;-1.290;2023-04-01T00:00:24;98553.87;;;11.49;100.00
28027;BME280;15344;52.342;-1.290;2023-04-01T00:02:49;98555.01;;;13.32;100.00
28027;BME280;15344;52.342;-1.290;2023-04-01T00:05:15;98559.39;;;13.28;100.00
28027;BME280;15344;52.342;-1.290;2023-04-01T00:07:40;98560.67;;;13.42;100.00
28027;BME280;15344;52.342;-1.290;2023-04-01T00:10:09;98561.03;;;12.69;100.00
28027;BME280;15344;52.342;-1.290;2023-04-01T00:12:31;98560.79;;;13.09;100.00
28027;BME280;15344;52.342;-1.290;2023-04-01T00:14:57;98562.67;;;13.03;100.00
28027;BME280;15344;52.342;-1.290;2023-04-01T00:17:22;98565.95;;;12.87;100.00
28027;BME280;15344;52.342;-1.290;2023-04-01T00:19:48;98573.09;;;11.67;100.00
28027;BME280;15344;52.342;-1.290;2023-04-01T00:22:13;98575.43;;;11.13;100.00
28027;BME280;15344;52.342;-1.290;2023-04-01T00:24:39;98577.92;;;12.21;100.00
28027;BME280;15344;52.342;-1.290;2023-04-01T00:27:04;98579.87;;;12.23;100.00
28027;BME280;15344;52.342;-1.290;2023-04-01T00:29:30;98584.36;;;12.64;100.00
28027;BME280;15344;52.342;-1.290;2023-04-01T00:31:55;98586.74;;;13.78;100.00
28027;BME280;15344;52.342;-1.290;2023-04-01T00:34:20;98588.10;;;13.08;100.00
28027;BME280;15344;52.342;-1.290;2023-04-01T00:36:46;98589.69;;;12.95;100.00
28027;BME280;15344;52.342;-1.290;2023-04-01T00:39:11;98594.39;;;12.21;100.00
28027;BME280;15344;52.342;-1.290;2023-04-01T00:41:37;98598.28;;;13.09;100.00
28027;BME280;15344;52.342;-1.290;2023-04-01T00:46:28;98600.40;;;14.16;100.00
28027;BME280;15344;52.342;-1.290;2023-04-01T00:48:55;98600.84;;;12.86;100.00
28027;BME280;15344;52.342;-1.290;2023-04-01T00:51:23;98607.88;;;13.16;100.00
28027;BME280;15344;52.342;-1.290;2023-04-01T00:53:48;98609.99;;;14.42;99.73
28027;BME280;15344;52.342;-1.290;2023-04-01T00:56:13;98612.03;;;14.09;100.00
28027;BME280;15344;52.342;-1.290;2023-04-01T00:58:40;98619.38;;;13.70;100.00
28027;BME280;15344;52.342;-1.290;2023-04-01T01:01:02;98615.03;;;14.53;99.37
28027;BME280;15344;52.342;-1.290;2023-04-01T01:03:28;98621.91;;;13.75;100.00
28027;BME280;15344;52.342;-1.290;2023-04-01T01:06:06;98626.10;;;13.78;100.00
28027;BME280;15344;52.342;-1.290;2023-04-01T01:08:24;98624.03;;;14.47;99.12
28027;BME280;15344;52.342;-1.290;2023-04-01T01:10:43;98631.48;;;12.12;100.00
28027;BME280;15344;52.342;-1.290;2023-04-01T01:13:11;98631.49;;;12.28;100.00
28027;BME280;15344;52.342;-1.290;2023-04-01T01:15:37;98632.02;;;12.58;100.00
28027;BME280;15344;52.342;-1.290;2023-04-01T01:18:05;98637.33;;;12.11;100.00
28027;BME280;15344;52.342;-1.290;2023-04-01T01:25:23;98647.33;;;10.40;100.00
28027;BME280;15344;52.342;-1.290;2023-04-01T01:27:42;98652.51;;;11.86;100.00
28027;BME280;15344;52.342;-1.290;2023-04-01T01:30:13;98653.46;;;10.74;100.00
28027;BME280;15344;52.342;-1.290;2023-04-01T01:32:44;98658.50;;;11.52;100.00
28027;BME280;15344;52.342;-1.290;2023-04-01T01:35:10;98661.99;;;12.37;100.00
28027;BME280;15344;52.342;-1.290;2023-04-01T01:37:24;98663.56;;;12.35;100.00
28027;BME280;15344;52.342;-1.290;2023-04-01T01:39:53;98668.02;;;12.01;100.00
28027;BME280;15344;52.342;-1.290;2023-04-01T01:42:15;98669.05;;;10.33;100.00
28027;BME280;15344;52.342;-1.290;2023-04-01T01:44:39;98669.45;;;12.46;100.00
28027;BME280;15344;52.342;-1.290;2023-04-01T01:47:04;98669.77;;;13.23;100.00
28027;BME280;15344;52.342;-1.290;2023-04-01T01:49:30;98677.87;;;12.10;100.00
28027;BME280;15344;52.342;-1.290;2023-04-01T01:51:54;98684.08;;;11.81;100.00
28027;BME280;15344;52.342;-1.290;2023-04-01T01:54:19;98683.81;;;10.35;100.00
28027;BME280;15344;52.342;-1.290;2023-04-01T01:56:47;98690.97;;;9.84;100.00
28027;BME280;15344;52.342;-1.290;2023-04-01T01:59:11;98685.84;;;10.94;100.00
28027;BME280;15344;52.342;-1.290;2023-04-01T02:01:38;98686.83;;;11.20;100.00
28027;BME280;15344;52.342;-1.290;2023-04-01T02:04:00;98688.73;;;11.74;100.00
28027;BME280;15344;52.342;-1.290;2023-04-01T02:06:28;98688.77;;;10.79;100.00
28027;BME280;15344;52.342;-1.290;2023-04-01T02:08:52;98693.13;;;11.70;100.00
28027;BME280;15344;52.342;-1.290;2023-04-01T02:11:18;98693.85;;;10.99;100.00
28027;BME280;15344;52.342;-1.290;2023-04-01T02:13:46;98698.18;;;11.35;100.00
28027;BME280;15344;52.342;-1.290;2023-04-01T02:16:14;98701.25;;;10.24;100.00
28027;BME280;15344;52.342;-1.290;2023-04-01T02:18:35;98709.13;;;11.96;100.00
28027;BME280;15344;52.342;-1.290;2023-04-01T02:20:59;98711.61;;;10.31;100.00
28027;BME280;15344;52.342;-1.290;2023-04-01T02:23:23;98715.94;;;10.37;100.00
28027;BME280;15344;52.342;-1.290;2023-04-01T02:25:49;98715.97;;;9.24;100.00
28027;BME280;15344;52.342;-1.290;2023-04-01T02:28:15;98718.50;;;9.97;100.00
28027;BME280;15344;52.342;-1.290;2023-04-01T02:30:41;98721.89;;;9.85;100.00
28027;BME280;15344;52.342;-1.290;2023-04-01T02:33:06;98723.07;;;9.84;100.00
28027;BME280;15344;52.342;-1.290;2023-04-01T02:35:33;98725.86;;;10.15;100.00
28027;BME280;15344;52.342;-1.290;2023-04-01T02:37:57;98724.05;;;11.05;100.00
28027;BME280;15344;52.342;-1.290;2023-04-01T02:40:22;98726.87;;;10.35;100.00
28027;BME280;15344;52.342;-1.290;2023-04-01T02:42:47;98730.67;;;10.26;100.00
28027;BME280;15344;52.342;-1.290;2023-04-01T02:45:14;98735.54;;;10.33;100.00
28027;BME280;15344;52.342;-1.290;2023-04-01T02:47:39;98737.91;;;10.07;100.00
28027;BME280;15344;52.342;-1.290;2023-04-01T02:50:06;98740.85;;;11.17;100.00
28027;BME280;15344;52.342;-1.290;2023-04-01T02:52:30;98741.14;;;9.85;100.00
28027;BME280;15344;52.342;-1.290;2023-04-01T02:54:55;98742.92;;;10.20;100.00
28027;BME280;15344;52.342;-1.290;2023-04-01T02:57:19;98744.71;;;9.89;100.00
28027;BME280;15344;52.342;-1.290;2023-04-01T02:59:45;98741.81;;;8.93;100.00
28027;BME280;15344;52.342;-1.290;2023-04-01T03:02:10;98744.53;;;8.77;100.00
28027;BME280;15344;52.342;-1.290;2023-04-01T03:04:35;98745.47;;;10.29;100.00
28027;BME280;15344;52.342;-1.290;2023-04-01T03:07:01;98751.79;;;10.53;100.00
28027;BME280;15344;52.342;-1.290;2023-04-01T03:09:26;98751.62;;;9.44;100.00
28027;BME280;15344;52.342;-1.290;2023-04-01T03:11:51;98756.17;;;8.88;100.00
28027;BME280;15344;52.342;-1.290;2023-04-01T03:14:16;98759.04;;;9.25;100.00
28027;BME280;15344;52.342;-1.290;2023-04-01T03:16:42;98762.30;;;9.78;100.00
28027;BME280;15344;52.342;-1.290;2023-04-01T03:19:07;98765.08;;;9.14;100.00
28027;BME280;15344;52.342;-1.290;2023-04-01T03:21:32;98767.57;;;9.28;100.00
28027;BME280;15344;52.342;-1.290;2023-04-01T03:23:58;98767.78;;;10.26;100.00
28027;BME280;15344;52.342;-1.290;2023-04-01T03:26:24;98771.42;;;9.81;100.00
28027;BME280;15344;52.342;-1.290;2023-04-01T03:28:49;98769.09;;;10.15;100.00
28027;BME280;15344;52.342;-1.290;2023-04-01T03:31:14;98770.74;;;10.32;100.00
28027;BME280;15344;52.342;-1.290;2023-04-01T03:33:40;98773.59;;;10.05;100.00
28027;BME280;15344;52.342;-1.290;2023-04-01T03:36:05;98774.11;;;10.22;100.00
28027;BME280;15344;52.342;-1.290;2023-04-01T03:38:30;98776.11;;;9.65;100.00
28027;BME280;15344;52.342;-1.290;2023-04-01T03:40:55;98781.73;;;10.18;100.00
28027;BME280;15344;52.342;-1.290;2023-04-01T03:43:21;98785.02;;;10.81;100.00
28027;BME280;15344;52.342;-1.290;2023-04-01T03:45:47;98786.24;;;10.64;100.00
28027;BME280;15344;52.342;-1.290;2023-04-01T03:48:12;98783.29;;;10.00;100.00
28027;BME280;15344;52.342;-1.290;2023-04-01T03:50:37;98785.40;;;11.37;100.00
28027;BME280;15344;52.342;-1.290;2023-04-01T03:53:03;98783.77;;;11.68;100.00
28027;BME280;15344;52.342;-1.290;2023-04-01T03:55:28;98791.60;;;10.65;100.00
28027;BME280;15344;52.342;-1.290;2023-04-01T03:57:53;98792.98;;;11.03;100.00
28027;BME280;15344;52.342;-1.290;2023-04-01T04:00:19;98799.60;;;9.78;100.00
28027;BME280;15344;52.342;-1.290;2023-04-01T04:02:44;98801.30;;;10.06;100.00
28027;BME280;15344;52.342;-1.290;2023-04-01T04:05:10;98804.51;;;9.84;100.00
28027;BME280;15344;52.342;-1.290;2023-04-01T04:07:35;98802.04;;;10.07;100.00
28027;BME280;15344;52.342;-1.290;2023-04-01T04:10:01;98806.61;;;9.65;100.00
28027;BME280;15344;52.342;-1.290;2023-04-01T04:12:26;98809.97;;;10.57;100.00
28027;BME280;15344;52.342;-1.290;2023-04-01T04:14:51;98807.12;;;10.99;100.00
28027;BME280;15344;52.342;-1.290;2023-04-01T04:17:17;98815.08;;;10.73;100.00
28027;BME280;15344;52.342;-1.290;2023-04-01T04:19:42;98823.27;;;9.06;100.00
28027;BME280;15344;52.342;-1.290;2023-04-01T04:22:07;98822.02;;;9.13;100.00
28027;BME280;15344;52.342;-1.290;2023-04-01T04:24:34;98825.73;;;10.56;100.00
28027;BME280;15344;52.342;-1.290;2023-04-01T04:26:58;98831.59;;;10.08;100.00
28027;BME280;15344;52.342;-1.290;2023-04-01T04:29:23;98834.71;;;9.72;100.00
28027;BME280;15344;52.342;-1.290;2023-04-01T04:31:48;98834.78;;;10.76;100.00
28027;BME280;15344;52.342;-1.290;2023-04-01T04:34:14;98834.50;;;10.38;100.00
28027;BME280;15344;52.342;-1.290;2023-04-01T04:36:39;98833.55;;;10.30;100.00
28027;BME280;15344;52.342;-1.290;2023-04-01T04:39:04;98835.55;;;10.35;100.00
28027;BME280;15344;52.342;-1.290;2023-04-01T04:41:30;98840.10;;;8.96;100.00
28027;BME280;15344;52.342;-1.290;2023-04-01T04:43:56;98843.74;;;9.32;100.00
28027;BME280;15344;52.342;-1.290;2023-04-01T04:46:21;98848.40;;;10.29;100.00
28027;BME280;15344;52.342;-1.290;2023-04-01T04:48:46;98848.66;;;10.21;100.00
28027;BME280;15344;52.342;-1.290;2023-04-01T04:51:14;98852.77;;;10.08;100.00
28027;BME280;15344;52.342;-1.290;2023-04-01T04:53:36;98854.46;;;10.58;100.00
28027;BME280;15344;52.342;-1.290;2023-04-01T04:56:02;98858.40;;;10.50;100.00
28027;BME280;15344;52.342;-1.290;2023-04-01T04:58:27;98857.44;;;10.96;100.00
28027;BME280;15344;52.342;-1.290;2023-04-01T05:00:52;98859.42;;;11.73;100.00
28027;BME280;15344;52.342;-1.290;2023-04-01T05:03:18;98861.68;;;11.59;100.00
28027;BME280;15344;52.342;-1.290;2023-04-01T05:05:49;98866.93;;;9.59;100.00
28027;BME280;15344;52.342;-1.290;2023-04-01T05:08:08;98870.34;;;10.79;100.00
28027;BME280;15344;52.342;-1.290;2023-04-01T05:10:34;98873.47;;;10.36;100.00
28027;BME280;15344;52.342;-1.290;2023-04-01T05:12:59;98877.14;;;10.80;100.00
28027;BME280;15344;52.342;-1.290;2023-04-01T05:15:24;98882.32;;;9.76;100.00
28027;BME280;15344;52.342;-1.290;2023-04-01T05:17:50;98888.80;;;10.80;100.00
28027;BME280;15344;52.342;-1.290;2023-04-01T05:20:16;98891.05;;;10.94;100.00
28027;BME280;15344;52.342;-1.290;2023-04-01T05:22:41;98892.87;;;10.28;100.00
28027;BME280;15344;52.342;-1.290;2023-04-01T05:25:07;98899.79;;;9.79;100.00
28027;BME280;15344;52.342;-1.290;2023-04-01T05:27:32;98906.68;;;10.04;100.00
28027;BME280;15344;52.342;-1.290;2023-04-01T05:29:57;98907.99;;;10.21;100.00
28027;BME280;15344;52.342;-1.290;2023-04-01T05:32:22;98916.11;;;10.36;100.00
28027;BME280;15344;52.342;-1.290;2023-04-01T05:34:50;98917.56;;;10.83;100.00
28027;BME280;15344;52.342;-1.290;2023-04-01T05:37:13;98919.72;;;11.01;100.00
28027;BME280;15344;52.342;-1.290;2023-04-01T05:39:43;98924.70;;;9.80;100.00
28027;BME280;15344;52.342;-1.290;2023-04-01T05:42:05;98923.95;;;10.49;100.00
28027;BME280;15344;52.342;-1.290;2023-04-01T05:44:28;98927.48;;;11.77;100.00
28027;BME280;15344;52.342;-1.290;2023-04-01T05:46:53;98931.88;;;11.52;100.00
28027;BME280;15344;52.342;-1.290;2023-04-01T05:49:18;98937.99;;;11.35;100.00
28027;BME280;15344;52.342;-1.290;2023-04-01T05:51:43;98936.76;;;12.38;100.00
28027;BME280;15344;52.342;-1.290;2023-04-01T05:54:09;98938.80;;;11.96;99.73
28027;BME280;15344;52.342;-1.290;2023-04-01T05:56:34;98949.70;;;11.33;100.00
28027;BME280;15344;52.342;-1.290;2023-04-01T05:59:00;98948.89;;;12.14;100.00
28027;BME280;15344;52.342;-1.290;2023-04-01T06:01:25;98950.25;;;11.17;100.00
28027;BME280;15344;52.342;-1.290;2023-04-01T06:03:50;98951.38;;;12.02;98.96
28027;BME280;15344;52.342;-1.290;2023-04-01T06:06:19;98955.97;;;11.86;100.00
28027;BME280;15344;52.342;-1.290;2023-04-01T06:08:40;98955.67;;;11.86;98.30
28027;BME280;15344;52.342;-1.290;2023-04-01T06:11:17;98960.20;;;10.33;100.00
28027;BME280;15344;52.342;-1.290;2023-04-01T06:13:40;98962.27;;;11.74;100.00
28027;BME280;15344;52.342;-1.290;2023-04-01T06:16:04;98963.85;;;10.46;100.00
28027;BME280;15344;52.342;-1.290;2023-04-01T06:18:34;98965.35;;;10.89;100.00
28027;BME280;15344;52.342;-1.290;2023-04-01T06:20:53;98963.28;;;11.94;98.42
28027;BME280;15344;52.342;-1.290;2023-04-01T06:23:22;98968.54;;;10.59;100.00
28027;BME280;15344;52.342;-1.290;2023-04-01T06:25:50;98973.08;;;10.99;100.00
28027;BME280;15344;52.342;-1.290;2023-04-01T06:28:21;98979.77;;;9.98;100.00
28027;BME280;15344;52.342;-1.290;2023-04-01T06:30:34;98977.15;;;10.46;100.00
28027;BME280;15344;52.342;-1.290;2023-04-01T06:35:31;98975.17;;;10.96;100.00
28027;BME280;15344;52.342;-1.290;2023-04-01T06:37:55;98978.07;;;10.16;100.00
28027;BME280;15344;52.342;-1.290;2023-04-01T06:40:21;98981.05;;;10.16;100.00
28027;BME280;15344;52.342;-1.290;2023-04-01T06:42:45;98980.00;;;10.94;100.00
28027;BME280;15344;52.342;-1.290;2023-04-01T06:45:09;98979.37;;;11.63;100.00
28027;BME280;15344;52.342;-1.290;2023-04-01T06:47:36;98983.86;;;10.71;100.00
28027;BME280;15344;52.342;-1.290;2023-04-01T06:49:56;98989.25;;;10.99;100.00
28027;BME280;15344;52.342;-1.290;2023-04-01T06:52:22;98993.78;;;10.45;100.00
28027;BME280;15344;52.342;-1.290;2023-04-01T06:54:46;98997.76;;;9.97;100.00
28027;BME280;15344;52.342;-1.290;2023-04-01T06:57:17;98994.91;;;10.84;100.00
28027;BME280;15344;52.342;-1.290;2023-04-01T06:59:34;98998.98;;;10.65;100.00
28027;BME280;15344;52.342;-1.290;2023-04-01T07:01:59;99008.09;;;8.79;100.00
28027;BME280;15344;52.342;-1.290;2023-04-01T07:04:26;99011.96;;;8.90;100.00
28027;BME280;15344;52.342;-1.290;2023-04-01T07:06:52;99008.55;;;11.01;100.00
28027;BME280;15344;52.342;-1.290;2023-04-01T07:09:19;99010.42;;;10.78;100.00
28027;BME280;15344;52.342;-1.290;2023-04-01T07:11:40;99017.73;;;11.62;100.00
28027;BME280;15344;52.342;-1.290;2023-04-01T07:14:12;99017.08;;;11.60;100.00
28027;BME280;15344;52.342;-1.290;2023-04-01T07:16:33;99025.68;;;10.39;100.00
28027;BME280;15344;52.342;-1.290;2023-04-01T07:18:59;99035.19;;;9.69;100.00
28027;BME280;15344;52.342;-1.290;2023-04-01T07:21:26;99037.61;;;9.82;100.00
28027;BME280;15344;52.342;-1.290;2023-04-01T07:23:47;99039.83;;;9.34;100.00
28027;BME280;15344;52.342;-1.290;2023-04-01T07:26:17;99040.03;;;10.34;100.00
28027;BME280;15344;52.342;-1.290;2023-04-01T07:28:38;99039.91;;;9.38;100.00
28027;BME280;15344;52.342;-1.290;2023-04-01T07:31:12;99040.10;;;8.91;100.00
28027;BME280;15344;52.342;-1.290;2023-04-01T07:33:35;99044.93;;;9.50;100.00
28027;BME280;15344;52.342;-1.290;2023-04-01T07:35:57;99051.63;;;8.57;100.00
28027;BME280;15344;52.342;-1.290;2023-04-01T07:38:27;99057.41;;;9.68;100.00
28027;BME280;15344;52.342;-1.290;2023-04-01T07:40:49;99063.70;;;8.96;100.00
28027;BME280;15344;52.342;-1.290;2023-04-01T07:43:20;99065.03;;;9.80;100.00
28027;BME280;15344;52.342;-1.290;2023-04-01T07:45:39;99065.50;;;8.63;100.00
28027;BME280;15344;52.342;-1.290;2023-04-01T07:48:12;99068.02;;;9.48;100.00
28027;BME280;15344;52.342;-1.290;2023-04-01T07:50:29;99071.47;;;8.87;100.00
28027;BME280;15344;52.342;-1.290;2023-04-01T07:52:59;99079.47;;;9.71;100.00
28027;BME280;15344;52.342;-1.290;2023-04-01T07:55:20;99081.37;;;9.00;100.00
28027;BME280;15344;52.342;-1.290;2023-04-01T07:57:47;99086.51;;;8.43;100.00
28027;BME280;15344;52.342;-1.290;2023-04-01T08:00:10;99085.01;;;8.96;100.00
28027;BME280;15344;52.342;-1.290;2023-04-01T08:02:44;99089.18;;;9.80;100.00
28027;BME280;15344;52.342;-1.290;2023-04-01T08:05:06;99092.88;;;8.63;100.00
28027;BME280;15344;52.342;-1.290;2023-04-01T08:07:25;99103.20;;;7.91;100.00
28027;BME280;15344;52.342;-1.290;2023-04-01T08:09:54;99100.98;;;8.99;100.00
28027;BME280;15344;52.342;-1.290;2023-04-01T08:12:24;99102.81;;;9.03;100.00
28027;BME280;15344;52.342;-1.290;2023-04-01T08:14:48;99110.93;;;9.55;100.00
28027;BME280;15344;52.342;-1.290;2023-04-01T08:17:10;99116.90;;;8.98;100.00
28027;BME280;15344;52.342;-1.290;2023-04-01T08:19:41;99115.70;;;9.44;100.00
28027;BME280;15344;52.342;-1.290;2023-04-01T08:21:58;99121.80;;;10.63;100.00
28027;BME280;15344;52.342;-1.290;2023-04-01T08:24:27;99125.72;;;9.33;100.00
28027;BME280;15344;52.342;-1.290;2023-04-01T08:26:48;99127.14;;;9.38;100.00
28027;BME280;15344;52.342;-1.290;2023-04-01T08:29:15;99128.63;;;11.03;100.00
28027;BME280;15344;52.342;-1.290;2023-04-01T08:31:40;99128.81;;;9.21;100.00
28027;BME280;15344;52.342;-1.290;2023-04-01T08:34:04;99135.85;;;10.20;100.00
28027;BME280;15344;52.342;-1.290;2023-04-01T08:36:31;99139.12;;;9.71;100.00
28027;BME280;15344;52.342;-1.290;2023-04-01T08:38:55;99143.85;;;9.77;100.00
28027;BME280;15344;52.342;-1.290;2023-04-01T08:46:20;99159.62;;;9.77;100.00
28027;BME280;15344;52.342;-1.290;2023-04-01T08:48:48;99166.06;;;10.54;100.00
28027;BME280;15344;52.342;-1.290;2023-04-01T08:51:15;99166.06;;;9.50;100.00
28027;BME280;15344;52.342;-1.290;2023-04-01T08:53:36;99175.43;;;10.38;100.00
28027;BME280;15344;52.342;-1.290;2023-04-01T08:56:01;99180.26;;;11.23;100.00
28027;BME280;15344;52.342;-1.290;2023-04-01T08:58:28;99185.61;;;10.84;100.00
28027;BME280;15344;52.342;-1.290;2023-04-01T09:00:46;99184.91;;;10.36;100.00
28027;BME280;15344;52.342;-1.290;2023-04-01T09:03:14;99185.72;;;9.95;100.00
28027;BME280;15344;52.342;-1.290;2023-04-01T09:05:36;99196.39;;;9.16;100.00
28027;BME280;15344;52.342;-1.290;2023-04-01T09:08:05;99197.35;;;9.40;100.00
28027;BME280;15344;52.342;-1.290;2023-04-01T09:10:36;99200.81;;;9.29;100.00
28027;BME280;15344;52.342;-1.290;2023-04-01T09:12:59;99204.69;;;10.56;100.00
28027;BME280;15344;52.342;-1.290;2023-04-01T09:22:39;99216.66;;;11.19;100.00
28027;BME280;15344;52.342;-1.290;2023-04-01T09:27:27;99213.59;;;10.27;100.00
28027;BME280;15344;52.342;-1.290;2023-04-01T09:32:23;99219.12;;;10.19;100.00
28027;BME280;15344;52.342;-1.290;2023-04-01T09:34:45;99220.97;;;10.58;100.00
28027;BME280;15344;52.342;-1.290;2023-04-01T09:39:35;99223.46;;;10.35;100.00
28027;BME280;15344;52.342;-1.290;2023-04-01T09:42:01;99225.36;;;9.48;100.00
28027;BME280;15344;52.342;-1.290;2023-04-01T09:44:21;99225.66;;;10.72;100.00
28027;BME280;15344;52.342;-1.290;2023-04-01T09:46:51;99225.66;;;11.79;100.00
28027;BME280;15344;52.342;-1.290;2023-04-01T09:51:38;99227.82;;;11.62;100.00
28027;BME280;15344;52.342;-1.290;2023-04-01T09:54:09;99232.35;;;10.60;100.00
28027;BME280;15344;52.342;-1.290;2023-04-01T10:01:30;99245.88;;;8.70;100.00
28027;BME280;15344;52.342;-1.290;2023-04-01T10:06:16;99250.23;;;9.42;100.00
28027;BME280;15344;52.342;-1.290;2023-04-01T10:11:08;99257.66;;;11.23;100.00
28027;BME280;15344;52.342;-1.290;2023-04-01T10:13:33;99258.09;;;9.11;100.00
28027;BME280;15344;52.342;-1.290;2023-04-01T10:15:58;99262.18;;;9.85;100.00
28027;BME280;15344;52.342;-1.290;2023-04-01T10:18:21;99266.46;;;11.21;100.00
28027;BME280;15344;52.342;-1.290;2023-04-01T10:23:12;99273.72;;;10.55;100.00
28027;BME280;15344;52.342;-1.290;2023-04-01T10:28:08;99286.25;;;10.66;100.00
28027;BME280;15344;52.342;-1.290;2023-04-01T10:35:20;99294.64;;;11.06;100.00
28027;BME280;15344;52.342;-1.290;2023-04-01T10:47:29;99308.60;;;10.83;99.44
28027;BME280;15344;52.342;-1.290;2023-04-01T10:49:48;99312.87;;;11.60;97.50
28027;BME280;15344;52.342;-1.290;2023-04-01T10:52:16;99314.13;;;11.98;96.00
28027;BME280;15344;52.342;-1.290;2023-04-01T10:57:01;99325.97;;;11.92;93.84
28027;BME280;15344;52.342;-1.290;2023-04-01T10:59:32;99327.46;;;12.40;94.26
28027;BME280;15344;52.342;-1.290;2023-04-01T11:23:44;99354.55;;;11.42;100.00
28027;BME280;15344;52.342;-1.290;2023-04-01T11:26:08;99349.05;;;13.48;95.09
28027;BME280;15344;52.342;-1.290;2023-04-01T11:33:20;99364.62;;;12.37;92.77
28027;BME280;15344;52.342;-1.290;2023-04-01T11:35:53;99373.61;;;11.69;95.09
28027;BME280;15344;52.342;-1.290;2023-04-01T11:40:37;99380.01;;;11.71;95.17
28027;BME280;15344;52.342;-1.290;2023-04-01T11:43:02;99383.93;;;11.85;98.00
28027;BME280;15344;52.342;-1.290;2023-04-01T11:45:33;99388.68;;;11.95;94.66
28027;BME280;15344;52.342;-1.290;2023-04-01T11:47:59;99388.97;;;10.24;98.83
28027;BME280;15344;52.342;-1.290;2023-04-01T11:50:24;99397.48;;;10.34;100.00
28027;BME280;15344;52.342;-1.290;2023-04-01T11:55:16;99403.94;;;10.95;98.28
28027;BME280;15344;52.342;-1.290;2023-04-01T11:57:42;99412.85;;;11.69;98.68
28027;BME280;15344;52.342;-1.290;2023-04-01T12:02:29;99421.96;;;11.73;95.50
28027;BME280;15344;52.342;-1.290;2023-04-01T12:04:54;99425.11;;;11.40;94.70
28027;BME280;15344;52.342;-1.290;2023-04-01T12:07:19;99429.30;;;11.74;96.01
28027;BME280;15344;52.342;-1.290;2023-04-01T12:09:44;99436.04;;;12.58;90.80
28027;BME280;15344;52.342;-1.290;2023-04-01T12:12:12;99434.78;;;11.58;90.98
28027;BME280;15344;52.342;-1.290;2023-04-01T12:14:32;99441.86;;;12.52;90.93
28027;BME280;15344;52.342;-1.290;2023-04-01T12:16:59;99445.27;;;12.38;88.58
28027;BME280;15344;52.342;-1.290;2023-04-01T12:19:26;99447.18;;;12.12;92.23
28027;BME280;15344;52.342;-1.290;2023-04-01T12:21:52;99448.70;;;11.92;92.92
28027;BME280;15344;52.342;-1.290;2023-04-01T12:26:43;99457.73;;;13.07;91.03
28027;BME280;15344;52.342;-1.290;2023-04-01T12:29:07;99460.18;;;11.81;95.07
28027;BME280;15344;52.342;-1.290;2023-04-01T12:31:34;99463.56;;;10.55;95.12
28027;BME280;15344;52.342;-1.290;2023-04-01T12:34:05;99465.42;;;11.88;91.52
28027;BME280;15344;52.342;-1.290;2023-04-01T12:36:31;99471.27;;;12.82;89.77
28027;BME280;15344;52.342;-1.290;2023-04-01T12:38:51;99472.22;;;12.86;90.08
28027;BME280;15344;52.342;-1.290;2023-04-01T12:41:10;99472.99;;;10.83;92.74
28027;BME280;15344;52.342;-1.290;2023-04-01T12:43:46;99481.01;;;10.56;97.22
28027;BME280;15344;52.342;-1.290;2023-04-01T12:46:05;99489.67;;;10.55;98.59
28027;BME280;15344;52.342;-1.290;2023-04-01T12:48:32;99487.76;;;10.32;98.55
28027;BME280;15344;52.342;-1.290;2023-04-01T12:51:01;99490.95;;;11.04;95.81
28027;BME280;15344;52.342;-1.290;2023-04-01T12:53:27;99492.30;;;10.18;99.66
28027;BME280;15344;52.342;-1.290;2023-04-01T12:55:40;99495.72;;;10.42;97.46
28027;BME280;15344;52.342;-1.290;2023-04-01T13:00:43;99504.11;;;11.10;98.51
28027;BME280;15344;52.342;-1.290;2023-04-01T13:03:06;99505.61;;;12.56;92.06
28027;BME280;15344;52.342;-1.290;2023-04-01T13:07:53;99513.57;;;10.63;94.99
28027;BME280;15344;52.342;-1.290;2023-04-01T13:10:18;99516.11;;;11.10;94.34
28027;BME280;15344;52.342;-1.290;2023-04-01T13:12:47;99517.48;;;10.49;95.99
28027;BME280;15344;52.342;-1.290;2023-04-01T13:15:14;99519.22;;;11.72;91.64
28027;BME280;15344;52.342;-1.290;2023-04-01T13:17:30;99527.79;;;10.90;95.31
28027;BME280;15344;52.342;-1.290;2023-04-01T13:19:55;99524.58;;;11.43;93.42
28027;BME280;15344;52.342;-1.290;2023-04-01T13:22:21;99529.42;;;11.32;93.12
28027;BME280;15344;52.342;-1.290;2023-04-01T13:24:46;99536.78;;;11.65;90.41
28027;BME280;15344;52.342;-1.290;2023-04-01T13:27:13;99540.54;;;10.26;95.13
28027;BME280;15344;52.342;-1.290;2023-04-01T13:29:36;99537.33;;;11.49;88.21
28027;BME280;15344;52.342;-1.290;2023-04-01T13:32:11;99540.22;;;11.51;86.81
28027;BME280;15344;52.342;-1.290;2023-04-01T13:34:33;99545.19;;;10.44;91.21
28027;BME280;15344;52.342;-1.290;2023-04-01T13:36:57;99546.48;;;11.52;87.55
28027;BME280;15344;52.342;-1.290;2023-04-01T13:39:26;99546.29;;;12.43;86.25
28027;BME280;15344;52.342;-1.290;2023-04-01T13:41:52;99549.43;;;12.97;85.08
28027;BME280;15344;52.342;-1.290;2023-04-01T13:44:11;99552.36;;;12.37;85.20
28027;BME280;15344;52.342;-1.290;2023-04-01T13:46:41;99555.22;;;11.75;85.02
28027;BME280;15344;52.342;-1.290;2023-04-01T13:49:05;99555.24;;;10.43;93.42
28027;BME280;15344;52.342;-1.290;2023-04-01T13:51:31;99557.65;;;11.48;89.48
28027;BME280;15344;52.342;-1.290;2023-04-01T13:53:55;99562.36;;;12.66;89.09
28027;BME280;15344;52.342;-1.290;2023-04-01T13:56:20;99560.62;;;11.99;86.26
28027;BME280;15344;52.342;-1.290;2023-04-01T14:01:08;99568.37;;;10.74;86.83
28027;BME280;15344;52.342;-1.290;2023-04-01T14:03:32;99570.93;;;10.70;89.51
28027;BME280;15344;52.342;-1.290;2023-04-01T14:06:02;99578.37;;;10.60;91.75
28027;BME280;15344;52.342;-1.290;2023-04-01T14:08:29;99585.27;;;11.12;95.60
28027;BME280;15344;52.342;-1.290;2023-04-01T14:10:47;99579.82;;;11.22;90.92
28027;BME280;15344;52.342;-1.290;2023-04-01T14:13:15;99582.87;;;11.43;94.13
28027;BME280;15344;52.342;-1.290;2023-04-01T14:15:44;99588.21;;;11.15;92.99
28027;BME280;15344;52.342;-1.290;2023-04-01T14:18:09;99590.69;;;11.90;93.30
28027;BME280;15344;52.342;-1.290;2023-04-01T14:20:30;99597.31;;;11.77;87.45